createdAt,value
2022-08-11T00:01:55.605Z,98083.63
2022-08-11T00:04:26.159Z,98080.66
2022-08-11T00:06:54.337Z,98075.81
2022-08-11T00:09:24.487Z,98072.13
2022-08-11T00:11:53.114Z,98074.25
2022-08-11T00:14:22.873Z,98073.75
2022-08-11T00:16:57.170Z,98074.97
2022-08-11T00:20:11.857Z,98072.13
2022-08-11T00:22:21.780Z,98076.41
2022-08-11T00:24:54.933Z,98079.75
2022-08-11T00:27:33.407Z,98082.34
2022-08-11T00:30:01.120Z,98074.16
2022-08-11T00:32:31.552Z,98075.34
2022-08-11T00:35:54.533Z,98078.81
2022-08-11T00:37:50.616Z,98079.03
2022-08-11T00:40:24.672Z,98088.66
2022-08-11T00:43:03.196Z,98082.69
2022-08-11T00:45:34.590Z,98085.34
2022-08-11T00:48:06.982Z,98089.31
2022-08-11T00:50:45.570Z,98088.97
2022-08-11T00:53:36.648Z,98091.34
2022-08-11T00:56:19.319Z,98091.53
2022-08-11T00:59:35.040Z,98091.16
2022-08-11T01:02:15.950Z,98085.47
2022-08-11T01:05:34.195Z,98087.94
2022-08-11T01:08:32.300Z,98083.31
2022-08-11T01:11:55.610Z,98082.69
2022-08-11T01:14:57.250Z,98079.88
2022-08-11T01:17:58.950Z,98081.28
2022-08-11T01:20:59.653Z,98081.66
2022-08-11T01:24:00.767Z,98078.03
2022-08-11T01:26:55.384Z,98079.88
2022-08-11T01:29:59.786Z,98076.22
2022-08-11T01:33:08.456Z,98082.94
2022-08-11T01:35:50.129Z,98083.25
2022-08-11T01:38:56.380Z,98079.59
2022-08-11T01:42:00.937Z,98080.28
2022-08-11T01:45:02.332Z,98078.28
2022-08-11T01:47:53.178Z,98077.63
2022-08-11T01:50:51.566Z,98074.78
2022-08-11T01:53:35.736Z,98082.00
2022-08-11T01:56:14.303Z,98063.81
2022-08-11T01:58:47.107Z,98066.84
2022-08-11T02:01:38.486Z,98072.56
2022-08-11T02:04:12.780Z,98067.38
2022-08-11T02:06:55.640Z,98066.53
2022-08-11T02:09:36.157Z,98066.38
2022-08-11T02:12:13.613Z,98064.53
2022-08-11T02:14:53.655Z,98065.38
2022-08-11T02:17:42.828Z,98064.25
2022-08-11T02:20:38.074Z,98072.09
2022-08-11T02:24:03.690Z,98066.22
2022-08-11T02:26:24.103Z,98069.22
2022-08-11T02:29:03.249Z,98057.06
2022-08-11T02:32:14.910Z,98058.06
2022-08-11T02:34:59.836Z,98051.41
2022-08-11T02:37:38.334Z,98048.56
2022-08-11T02:40:21.634Z,98054.06
2022-08-11T02:42:59.244Z,98047.06
2022-08-11T02:45:36.067Z,98050.91
2022-08-11T02:48:24.892Z,98055.41
2022-08-11T02:50:57.477Z,98047.09
2022-08-11T02:53:29.636Z,98049.75
2022-08-11T02:56:03.444Z,98054.56
2022-08-11T02:58:39.794Z,98050.25
2022-08-11T03:01:16.847Z,98042.06
2022-08-11T03:03:51.680Z,98041.72
2022-08-11T03:06:26.240Z,98044.75
2022-08-11T03:08:57.465Z,98040.06
2022-08-11T03:12:09.049Z,98033.72
2022-08-11T03:14:59.547Z,98039.06
2022-08-11T03:17:31.936Z,98038.56
2022-08-11T03:20:22.533Z,98036.41
2022-08-11T03:22:55.685Z,98042.03
2022-08-11T03:25:31.913Z,98048.66
2022-08-11T03:28:09.747Z,98054.50
2022-08-11T03:30:45.402Z,98052.31
2022-08-11T03:33:38.357Z,98058.00
2022-08-11T03:36:12.159Z,98059.31
2022-08-11T03:38:49.988Z,98062.31
2022-08-11T03:42:02.425Z,98057.66
2022-08-11T03:44:39.575Z,98058.97
2022-08-11T03:47:20.853Z,98060.00
2022-08-11T03:50:02.524Z,98061.50
2022-08-11T03:52:47.968Z,98057.50
2022-08-11T03:55:22.382Z,98057.47
2022-08-11T03:58:15.616Z,98052.50
2022-08-11T04:00:58.836Z,98058.47
2022-08-11T04:04:00.105Z,98052.50
2022-08-11T04:06:56.735Z,98058.03
2022-08-11T04:10:01.906Z,98051.03
2022-08-11T04:12:44.264Z,98053.38
2022-08-11T04:16:00.853Z,98051.72
2022-08-11T04:19:29.765Z,98050.38
2022-08-11T04:22:23.322Z,98050.88
2022-08-11T04:25:12.159Z,98047.38
2022-08-11T04:28:28.633Z,98057.81
2022-08-11T04:31:05.523Z,98054.38
2022-08-11T04:33:56.538Z,98047.38
2022-08-11T04:36:56.465Z,98043.72
2022-08-11T04:39:40.881Z,98054.06
2022-08-11T04:42:45.108Z,98053.41
2022-08-11T04:45:39.351Z,98046.91
2022-08-11T04:48:53.630Z,98050.72
2022-08-11T04:51:52.802Z,98060.91
2022-08-11T04:54:48.061Z,98065.41
2022-08-11T04:57:39.335Z,98060.06
2022-08-11T05:00:26.217Z,98058.25
2022-08-11T05:03:28.704Z,98068.25
2022-08-11T05:06:48.985Z,98068.41
2022-08-11T05:09:47.585Z,98074.75
2022-08-11T05:12:31.359Z,98071.88
2022-08-11T05:15:17.282Z,98077.56
2022-08-11T05:18:04.717Z,98074.44
2022-08-11T05:20:50.703Z,98073.75
2022-08-11T05:23:39.629Z,98066.88
2022-08-11T05:26:47.117Z,98074.03
2022-08-11T05:29:58.455Z,98074.72
2022-08-11T05:32:49.010Z,98083.03
2022-08-11T05:36:00.611Z,98079.69
2022-08-11T05:38:23.695Z,98072.69
2022-08-11T05:41:10.721Z,98073.66
2022-08-11T05:44:21.413Z,98072.66
2022-08-11T05:47:05.734Z,98077.78
2022-08-11T05:49:52.119Z,98069.72
2022-08-11T05:52:41.819Z,98067.19
2022-08-11T05:55:28.574Z,98070.53
2022-08-11T05:57:57.486Z,98069.19
2022-08-11T06:00:27.314Z,98068.13
2022-08-11T06:03:07.279Z,98070.16
2022-08-11T06:05:38.335Z,98074.72
2022-08-11T06:08:12.273Z,98072.59
2022-08-11T06:10:42.041Z,98073.03
2022-08-11T06:13:10.496Z,98068.34
2022-08-11T06:15:47.478Z,98072.88
2022-08-11T06:18:15.692Z,98066.34
2022-08-11T06:20:50.857Z,98076.59
2022-08-11T06:23:20.562Z,98071.44
2022-08-11T06:25:48.897Z,98067.53
2022-08-11T06:28:20.719Z,98070.88
2022-08-11T06:30:50.241Z,98069.19
2022-08-11T06:33:21.535Z,98068.25
2022-08-11T06:36:00.509Z,98066.53
2022-08-11T06:38:39.766Z,98067.28
2022-08-11T06:41:33.409Z,98075.53
2022-08-11T06:44:08.654Z,98068.94
2022-08-11T06:46:40.207Z,98071.69
2022-08-11T06:49:30.100Z,98070.84
2022-08-11T06:52:01.574Z,98065.66
2022-08-11T06:54:31.148Z,98064.72
2022-08-11T06:57:32.151Z,98071.25
2022-08-11T07:00:18.140Z,98062.75
2022-08-11T07:02:56.171Z,98055.94
2022-08-11T07:05:25.714Z,98059.19
2022-08-11T07:09:03.514Z,98061.50
2022-08-11T07:12:14.175Z,98057.81
2022-08-11T07:15:08.149Z,98055.78
2022-08-11T07:17:40.441Z,98053.09
2022-08-11T07:20:29.037Z,98046.63
2022-08-11T07:23:17.014Z,98052.84
2022-08-11T07:26:04.076Z,98046.78
2022-08-11T07:28:50.448Z,98055.53
2022-08-11T07:31:21.432Z,98042.53
2022-08-11T07:34:08.529Z,98053.25
2022-08-11T07:36:41.279Z,98054.59
2022-08-11T07:39:16.973Z,98053.38
2022-08-11T07:41:44.972Z,98047.63
2022-08-11T07:44:13.077Z,98052.31
2022-08-11T07:46:59.851Z,98050.38
2022-08-11T07:49:47.343Z,98046.50
2022-08-11T07:52:30.379Z,98051.50
2022-08-11T07:54:59.590Z,98056.06
2022-08-11T07:58:14.047Z,98053.03
2022-08-11T08:00:55.594Z,98050.38
2022-08-11T08:03:54.534Z,98050.28
2022-08-11T08:06:40.574Z,98058.22
2022-08-11T08:09:27.699Z,98063.59
2022-08-11T08:12:13.377Z,98053.84
2022-08-11T08:14:58.861Z,98061.28
2022-08-11T08:18:20.556Z,98052.63
2022-08-11T08:20:37.878Z,98063.19
2022-08-11T08:23:06.051Z,98054.47
2022-08-11T08:25:36.456Z,98061.28
2022-08-11T08:28:07.291Z,98056.72
2022-08-11T08:30:50.880Z,98059.63
2022-08-11T08:33:21.427Z,98060.63
2022-08-11T08:36:11.624Z,98056.59
2022-08-11T08:38:41.493Z,98060.84
2022-08-11T08:41:13.205Z,98061.25
2022-08-11T08:43:48.515Z,98067.84
2022-08-11T08:46:20.074Z,98066.66
2022-08-11T08:48:48.435Z,98051.03
2022-08-11T08:52:01.900Z,98055.25
2022-08-11T08:54:23.450Z,98051.63
2022-08-11T08:56:54.212Z,98051.44
2022-08-11T08:59:23.815Z,98046.16
2022-08-11T09:01:54.646Z,98052.91
2022-08-11T09:04:22.771Z,98046.00
2022-08-11T09:06:52.307Z,98044.16
2022-08-11T09:09:22.141Z,98044.09
2022-08-11T09:11:53.424Z,98044.16
2022-08-11T09:14:22.836Z,98049.31
2022-08-11T09:16:51.308Z,98039.50
2022-08-11T09:19:21.420Z,98043.25
2022-08-11T09:22:12.703Z,98034.16
2022-08-11T09:24:58.637Z,98031.16
2022-08-11T09:27:27.704Z,98023.34
2022-08-11T09:29:55.803Z,98038.91
2022-08-11T09:32:23.941Z,98035.59
2022-08-11T09:34:54.187Z,98028.50
2022-08-11T09:37:54.566Z,98031.38
2022-08-11T09:40:30.563Z,98029.59
2022-08-11T09:43:19.520Z,98031.22
2022-08-11T09:45:51.256Z,98025.09
2022-08-11T09:48:19.804Z,98022.81
2022-08-11T09:50:50.409Z,98026.72
2022-08-11T09:53:36.511Z,98020.25
2022-08-11T09:56:23.309Z,98017.22
2022-08-11T09:58:52.392Z,98009.16
2022-08-11T10:01:28.017Z,98015.06
2022-08-11T10:03:59.828Z,98010.72
2022-08-11T10:06:45.551Z,98004.50
2022-08-11T10:09:20.180Z,98003.78
2022-08-11T10:11:55.573Z,97996.38
2022-08-11T10:14:45.556Z,98005.28
2022-08-11T10:17:14.693Z,98003.88
2022-08-11T10:19:43.426Z,97998.31
2022-08-11T10:22:28.592Z,97990.16
2022-08-11T10:25:19.647Z,97991.47
2022-08-11T10:28:28.132Z,97990.66
2022-08-11T10:30:56.925Z,97991.69
2022-08-11T10:33:54.336Z,97982.63
2022-08-11T10:36:27.103Z,97976.50
2022-08-11T10:38:55.137Z,97966.47
2022-08-11T10:42:01.884Z,97963.38
2022-08-11T10:44:28.631Z,97966.69
2022-08-11T10:47:15.169Z,97965.25
2022-08-11T10:49:43.204Z,97968.69
2022-08-11T10:52:29.362Z,97947.75
2022-08-11T10:55:14.620Z,97951.94
2022-08-11T10:58:04.287Z,97947.25
2022-08-11T11:00:33.229Z,97938.75
2022-08-11T11:03:21.885Z,97948.75
2022-08-11T11:06:27.923Z,97950.88
2022-08-11T11:09:00.111Z,97939.63
2022-08-11T11:11:53.020Z,97938.56
2022-08-11T11:14:46.204Z,97938.09
2022-08-11T11:17:42.172Z,97929.69
2022-08-11T11:20:34.593Z,97928.22
2022-08-11T11:23:05.976Z,97928.88
2022-08-11T11:25:44.909Z,97931.94
2022-08-11T11:28:32.260Z,97933.28
2022-08-11T11:31:12.520Z,97937.19
2022-08-11T11:34:11.912Z,97939.94
2022-08-11T11:36:46.586Z,97929.09
2022-08-11T11:39:14.501Z,97919.72
2022-08-11T11:41:43.271Z,97917.09
2022-08-11T11:44:13.202Z,97918.06
2022-08-11T11:46:41.397Z,97918.53
2022-08-11T11:49:16.616Z,97905.81
2022-08-11T11:51:50.249Z,97901.31
2022-08-11T11:54:19.368Z,97906.44
2022-08-11T11:56:47.711Z,97901.06
2022-08-11T11:59:34.007Z,97905.28
2022-08-11T12:02:11.927Z,97905.28
2022-08-11T12:04:43.364Z,97898.69
2022-08-11T12:07:30.480Z,97902.91
2022-08-11T12:09:59.239Z,97894.91
2022-08-11T12:12:44.697Z,97891.03
2022-08-11T12:15:13.330Z,97878.91
2022-08-11T12:17:41.215Z,97886.97
2022-08-11T12:20:30.836Z,97884.19
2022-08-11T12:23:16.725Z,97881.97
2022-08-11T12:26:26.459Z,97880.88
2022-08-11T12:28:51.359Z,97886.41
2022-08-11T12:31:22.117Z,97888.63
2022-08-11T12:33:50.356Z,97877.44
2022-08-11T12:36:18.831Z,97881.34
2022-08-11T12:38:51.465Z,97882.63
2022-08-11T12:41:42.149Z,97864.19
2022-08-11T12:44:37.280Z,97864.66
2022-08-11T12:47:05.632Z,97863.34
2022-08-11T12:49:54.455Z,97867.66
2022-08-11T12:52:25.210Z,97871.94
2022-08-11T12:54:59.861Z,97865.34
2022-08-11T12:57:50.032Z,97865.72
2022-08-11T13:00:36.163Z,97860.75
2022-08-11T13:03:22.493Z,97856.56
2022-08-11T13:05:53.604Z,97850.81
2022-08-11T13:08:23.544Z,97851.47
2022-08-11T13:11:10.675Z,97843.72
2022-08-11T13:13:54.623Z,97850.00
2022-08-11T13:16:24.747Z,97847.31
2022-08-11T13:18:53.341Z,97839.34
2022-08-11T13:21:22.638Z,97841.88
2022-08-11T13:24:01.205Z,97837.59
2022-08-11T13:26:47.101Z,97835.28
2022-08-11T13:29:22.253Z,97826.69
2022-08-11T13:31:50.313Z,97827.59
2022-08-11T13:34:19.729Z,97835.75
2022-08-11T13:36:49.766Z,97837.56
2022-08-11T13:39:17.703Z,97833.97
2022-08-11T13:41:48.255Z,97828.94
2022-08-11T13:44:23.128Z,97823.69
2022-08-11T13:46:53.099Z,97829.06
2022-08-11T13:49:22.017Z,97829.88
2022-08-11T13:51:50.373Z,97833.41
2022-08-11T13:54:19.864Z,97827.00
2022-08-11T13:56:51.431Z,97818.59
2022-08-11T13:59:23.137Z,97818.91
2022-08-11T14:02:19.761Z,97821.38
2022-08-11T14:04:54.649Z,97821.47
2022-08-11T14:07:24.168Z,97817.97
2022-08-11T14:09:57.233Z,97816.53
2022-08-11T14:12:45.610Z,97817.25
2022-08-11T14:15:20.209Z,97806.56
2022-08-11T14:17:51.994Z,97805.09
2022-08-11T14:20:39.105Z,97807.22
2022-08-11T14:23:08.490Z,97809.44
2022-08-11T14:26:00.589Z,97802.22
2022-08-11T14:28:31.664Z,97812.00
2022-08-11T14:31:01.741Z,97802.03
2022-08-11T14:33:38.146Z,97802.53
2022-08-11T14:36:18.630Z,97804.25
2022-08-11T14:38:46.585Z,97801.22
2022-08-11T14:41:28.137Z,97806.91
2022-08-11T14:44:15.352Z,97803.56
2022-08-11T14:47:01.928Z,97799.66
2022-08-11T14:49:30.372Z,97795.06
2022-08-11T14:51:59.053Z,97802.66
2022-08-11T14:54:45.384Z,97793.69
2022-08-11T14:59:14.491Z,97791.31
2022-08-11T15:01:59.716Z,97800.53
2022-08-11T15:04:36.687Z,97796.41
2022-08-11T15:07:04.996Z,97797.06
2022-08-11T15:10:11.806Z,97792.22
2022-08-11T15:12:34.208Z,97785.34
2022-08-11T15:15:24.583Z,97791.69
2022-08-11T15:17:54.557Z,97788.03
2022-08-11T15:20:40.838Z,97788.44
2022-08-11T15:23:26.330Z,97788.06
2022-08-11T15:25:56.721Z,97789.06
2022-08-11T15:28:43.614Z,97776.53
2022-08-11T15:31:30.283Z,97788.03
2022-08-11T15:34:18.241Z,97776.50
2022-08-11T15:37:05.944Z,97783.72
2022-08-11T15:39:36.118Z,97781.78
2022-08-11T15:42:27.694Z,97783.66
2022-08-11T15:45:16.212Z,97781.38
2022-08-11T15:47:49.797Z,97784.06
2022-08-11T15:50:20.158Z,97785.31
2022-08-11T15:52:52.809Z,97787.09
2022-08-11T15:55:21.205Z,97777.03
2022-08-11T15:58:08.248Z,97776.59
2022-08-11T16:00:59.074Z,97771.91
2022-08-11T16:04:06.706Z,97776.97
2022-08-11T16:06:37.492Z,97770.56
2022-08-11T16:09:18.474Z,97778.78
2022-08-11T16:11:47.540Z,97775.97
2022-08-11T16:14:35.359Z,97769.53
2022-08-11T16:17:04.547Z,97766.38
2022-08-11T16:19:36.410Z,97766.94
2022-08-11T16:22:07.287Z,97757.41
2022-08-11T16:26:38.715Z,97759.22
2022-08-11T16:27:24.624Z,97754.31
2022-08-11T16:29:52.839Z,97745.53
2022-08-11T16:32:23.413Z,97747.44
2022-08-11T16:35:13.795Z,97752.03
2022-08-11T16:38:00.172Z,97750.69
2022-08-11T16:40:28.961Z,97749.97
2022-08-11T16:43:15.622Z,97746.31
2022-08-11T16:46:01.543Z,97743.19
2022-08-11T16:48:37.367Z,97745.00
2022-08-11T16:51:08.377Z,97743.63
2022-08-11T16:53:59.834Z,97747.88
2022-08-11T16:56:28.631Z,97746.72
2022-08-11T16:59:15.485Z,97756.72
2022-08-11T17:01:46.872Z,97749.31
2022-08-11T17:04:43.507Z,97745.16
2022-08-11T17:07:50.586Z,97748.31
2022-08-11T17:10:52.014Z,97752.50
2022-08-11T17:13:27.240Z,97758.50
2022-08-11T17:16:12.548Z,97755.25
2022-08-11T17:18:50.370Z,97747.94
2022-08-11T17:21:21.123Z,97753.63
2022-08-11T17:23:55.049Z,97749.16
2022-08-11T17:26:26.646Z,97748.63
2022-08-11T17:28:57.913Z,97749.63
2022-08-11T17:31:45.605Z,97747.09
2022-08-11T17:34:31.996Z,97751.88
2022-08-11T17:37:00.416Z,97754.59
2022-08-11T17:39:32.077Z,97758.41
2022-08-11T17:42:18.476Z,97746.13
2022-08-11T17:45:04.299Z,97749.38
2022-08-11T17:47:50.819Z,97750.47
2022-08-11T17:50:18.951Z,97748.28
2022-08-11T17:53:05.644Z,97759.75
2022-08-11T17:55:54.164Z,97762.59
2022-08-11T17:58:40.936Z,97763.06
2022-08-11T18:01:10.028Z,97761.09
2022-08-11T18:03:39.736Z,97770.28
2022-08-11T18:06:12.695Z,97767.34
2022-08-11T18:09:01.887Z,97769.84
2022-08-11T18:12:10.096Z,97763.75
2022-08-11T18:14:55.747Z,97768.22
2022-08-11T18:17:41.509Z,97773.63
2022-08-11T18:20:27.957Z,97775.03
2022-08-11T18:23:14.377Z,97782.75
2022-08-11T18:26:01.920Z,97779.47
2022-08-11T18:28:52.672Z,97783.25
2022-08-11T18:31:38.553Z,97784.63
2022-08-11T18:34:26.288Z,97793.59
2022-08-11T18:37:21.134Z,97795.00
2022-08-11T18:40:20.687Z,97798.69
2022-08-11T18:43:07.178Z,97798.53
2022-08-11T18:46:05.417Z,97786.56
2022-08-11T18:48:54.629Z,97790.91
2022-08-11T18:51:40.031Z,97796.97
2022-08-11T18:54:28.432Z,97798.22
2022-08-11T18:57:15.787Z,97804.28
2022-08-11T19:00:01.149Z,97805.53
2022-08-11T19:02:50.122Z,97815.03
2022-08-11T19:06:32.385Z,97815.66
2022-08-11T19:08:46.853Z,97809.22
2022-08-11T19:11:32.354Z,97815.44
2022-08-11T19:14:17.741Z,97825.38
2022-08-11T19:17:04.391Z,97818.34
2022-08-11T19:19:51.936Z,97824.31
2022-08-11T19:22:37.243Z,97828.84
2022-08-11T19:25:25.933Z,97820.75
2022-08-11T19:28:12.330Z,97826.97
2022-08-11T19:30:58.466Z,97826.91
2022-08-11T19:34:02.508Z,97837.25
2022-08-11T19:36:52.273Z,97824.19
2022-08-11T19:39:38.525Z,97831.00
2022-08-11T19:42:26.229Z,97834.50
2022-08-11T19:45:11.990Z,97832.63
2022-08-11T19:48:14.394Z,97838.84
2022-08-11T19:51:02.758Z,97841.69
2022-08-11T19:53:51.316Z,97845.00
2022-08-11T19:56:36.869Z,97834.44
2022-08-11T19:59:22.782Z,97835.88
2022-08-11T20:02:13.241Z,97839.53
2022-08-11T20:05:00.070Z,97834.97
2022-08-11T20:07:46.766Z,97835.81
2022-08-11T20:10:36.287Z,97834.56
2022-08-11T20:13:22.165Z,97837.88
2022-08-11T20:16:08.244Z,97836.66
2022-08-11T20:18:54.130Z,97839.34
2022-08-11T20:21:39.988Z,97836.06
2022-08-11T20:24:25.814Z,97835.09
2022-08-11T20:27:18.971Z,97835.47
2022-08-11T20:30:11.969Z,97838.94
2022-08-11T20:32:58.265Z,97836.03
2022-08-11T20:35:44.832Z,97836.25
2022-08-11T20:38:30.663Z,97842.53
2022-08-11T20:41:16.288Z,97843.22
2022-08-11T20:44:06.771Z,97844.59
2022-08-11T20:46:57.041Z,97848.22
2022-08-11T20:49:48.818Z,97845.28
2022-08-11T20:52:39.082Z,97841.78
2022-08-11T20:55:46.214Z,97845.47
2022-08-11T20:58:54.791Z,97848.78
2022-08-11T21:01:41.364Z,97839.34
2022-08-11T21:04:27.422Z,97836.16
2022-08-11T21:07:24.762Z,97846.53
2022-08-11T21:10:22.992Z,97844.50
2022-08-11T21:13:26.241Z,97841.06
2022-08-11T21:16:25.454Z,97841.38
2022-08-11T21:19:17.100Z,97852.94
2022-08-11T21:22:03.599Z,97857.16
2022-08-11T21:24:50.382Z,97867.00
2022-08-11T21:27:37.198Z,97866.00
2022-08-11T21:30:23.315Z,97860.91
2022-08-11T21:33:09.162Z,97864.41
2022-08-11T21:35:56.350Z,97864.88
2022-08-11T21:38:41.994Z,97867.34
2022-08-11T21:41:29.299Z,97874.19
2022-08-11T21:44:15.511Z,97866.72
2022-08-11T21:47:01.008Z,97867.47
2022-08-11T21:49:46.397Z,97864.88
2022-08-11T21:52:33.027Z,97858.88
2022-08-11T21:55:18.625Z,97867.84
2022-08-11T21:58:04.486Z,97868.56
2022-08-11T22:00:49.920Z,97865.13
2022-08-11T22:03:49.666Z,97869.25
2022-08-11T22:06:36.705Z,97864.03
2022-08-11T22:09:23.599Z,97862.44
2022-08-11T22:12:30.126Z,97859.00
2022-08-11T22:15:14.346Z,97865.16
2022-08-11T22:17:59.735Z,97860.59
2022-08-11T22:20:46.505Z,97865.00
2022-08-11T22:23:35.872Z,97863.66
2022-08-11T22:26:23.078Z,97863.75
2022-08-11T22:29:09.634Z,97862.97
2022-08-11T22:31:55.512Z,97854.41
2022-08-11T22:34:44.980Z,97855.38
2022-08-11T22:37:39.454Z,97854.66
2022-08-11T22:40:26.394Z,97853.75
2022-08-11T22:43:12.867Z,97849.44
2022-08-11T22:45:58.226Z,97854.66
2022-08-11T22:48:44.720Z,97851.34
2022-08-11T22:51:30.600Z,97848.53
2022-08-11T22:54:16.851Z,97861.34
2022-08-11T22:57:02.540Z,97854.63
2022-08-11T22:59:49.247Z,97852.47
2022-08-11T23:02:34.755Z,97849.19
2022-08-11T23:05:20.691Z,97846.16
2022-08-11T23:08:06.493Z,97848.47
2022-08-11T23:10:52.292Z,97854.19
2022-08-11T23:13:38.909Z,97851.72
2022-08-11T23:16:26.437Z,97851.22
2022-08-11T23:19:11.889Z,97854.25
2022-08-11T23:21:58.054Z,97853.91
2022-08-11T23:24:44.612Z,97848.94
2022-08-11T23:27:30.834Z,97850.59
2022-08-11T23:30:19.045Z,97848.63
2022-08-11T23:33:08.018Z,97844.16
2022-08-11T23:35:56.781Z,97846.88
2022-08-11T23:38:43.634Z,97852.38
2022-08-11T23:41:29.365Z,97858.03
2022-08-11T23:44:14.921Z,97843.53
2022-08-11T23:47:00.378Z,97847.41
2022-08-11T23:49:47.924Z,97847.75
2022-08-11T23:52:34.281Z,97839.44
2022-08-11T23:55:19.361Z,97841.09
2022-08-11T23:58:04.780Z,97839.91
